sensor_id;sensor_type;location;lat;lon;timestamp;temperature;humidity
57390;DHT22;43217;52.694;6.214;2023-08-31T00:00:50;12.30;99.90
57390;DHT22;43217;52.694;6.214;2023-08-31T00:03:19;12.30;99.90
57390;DHT22;43217;52.694;6.214;2023-08-31T00:05:44;12.40;99.90
57390;DHT22;43217;52.694;6.214;2023-08-31T00:08:11;12.40;99.90
57390;DHT22;43217;52.694;6.214;2023-08-31T00:10:39;12.50;99.90
57390;DHT22;43217;52.694;6.214;2023-08-31T00:13:05;12.50;99.90
57390;DHT22;43217;52.694;6.214;2023-08-31T00:15:34;12.50;99.90
57390;DHT22;43217;52.694;6.214;2023-08-31T00:18:04;12.50;99.90
57390;DHT22;43217;52.694;6.214;2023-08-31T00:20:30;12.50;99.90
57390;DHT22;43217;52.694;6.214;2023-08-31T00:22:56;12.50;99.90
57390;DHT22;43217;52.694;6.214;2023-08-31T00:25:22;12.50;99.90
57390;DHT22;43217;52.694;6.214;2023-08-31T00:27:48;12.50;99.90
57390;DHT22;43217;52.694;6.214;2023-08-31T00:30:14;12.50;99.90
57390;DHT22;43217;52.694;6.214;2023-08-31T00:32:41;12.50;99.90
57390;DHT22;43217;52.694;6.214;2023-08-31T00:35:08;12.50;99.90
57390;DHT22;43217;52.694;6.214;2023-08-31T00:37:34;12.50;99.90
57390;DHT22;43217;52.694;6.214;2023-08-31T00:40:00;12.50;99.90
57390;DHT22;43217;52.694;6.214;2023-08-31T00:42:26;12.50;99.90
57390;DHT22;43217;52.694;6.214;2023-08-31T00:44:52;12.50;99.90
57390;DHT22;43217;52.694;6.214;2023-08-31T00:47:19;12.50;99.90
57390;DHT22;43217;52.694;6.214;2023-08-31T00:49:45;12.50;99.90
57390;DHT22;43217;52.694;6.214;2023-08-31T00:52:10;12.50;99.90
57390;DHT22;43217;52.694;6.214;2023-08-31T00:54:36;12.50;99.90
57390;DHT22;43217;52.694;6.214;2023-08-31T00:57:03;12.50;99.90
57390;DHT22;43217;52.694;6.214;2023-08-31T00:59:29;12.50;99.90
57390;DHT22;43217;52.694;6.214;2023-08-31T01:02:01;12.40;99.90
57390;DHT22;43217;52.694;6.214;2023-08-31T01:07:39;12.40;99.90
57390;DHT22;43217;52.694;6.214;2023-08-31T01:10:42;12.40;99.90
57390;DHT22;43217;52.694;6.214;2023-08-31T01:13:14;12.40;99.90
57390;DHT22;43217;52.694;6.214;2023-08-31T01:15:52;12.40;99.90
57390;DHT22;43217;52.694;6.214;2023-08-31T01:18:21;12.40;99.90
57390;DHT22;43217;52.694;6.214;2023-08-31T01:21:06;12.30;99.90
57390;DHT22;43217;52.694;6.214;2023-08-31T01:23:50;12.40;99.90
57390;DHT22;43217;52.694;6.214;2023-08-31T01:26:17;12.30;99.90
57390;DHT22;43217;52.694;6.214;2023-08-31T01:28:48;12.30;99.90
57390;DHT22;43217;52.694;6.214;2023-08-31T01:31:14;12.30;99.90
57390;DHT22;43217;52.694;6.214;2023-08-31T01:33:41;12.30;99.90
57390;DHT22;43217;52.694;6.214;2023-08-31T01:36:30;12.30;99.90
57390;DHT22;43217;52.694;6.214;2023-08-31T01:39:33;12.20;99.90
57390;DHT22;43217;52.694;6.214;2023-08-31T01:42:03;12.20;99.90
57390;DHT22;43217;52.694;6.214;2023-08-31T01:44:31;12.10;99.90
57390;DHT22;43217;52.694;6.214;2023-08-31T01:47:06;12.10;99.90
57390;DHT22;43217;52.694;6.214;2023-08-31T01:49:39;12.10;99.90
57390;DHT22;43217;52.694;6.214;2023-08-31T01:52:06;12.00;99.90
57390;DHT22;43217;52.694;6.214;2023-08-31T01:54:32;12.00;99.90
57390;DHT22;43217;52.694;6.214;2023-08-31T01:56:58;11.90;99.90
57390;DHT22;43217;52.694;6.214;2023-08-31T01:59:24;11.90;99.90
57390;DHT22;43217;52.694;6.214;2023-08-31T02:01:49;11.80;99.90
57390;DHT22;43217;52.694;6.214;2023-08-31T02:04:15;11.80;99.90
57390;DHT22;43217;52.694;6.214;2023-08-31T02:06:41;11.80;99.90
57390;DHT22;43217;52.694;6.214;2023-08-31T02:09:07;11.70;99.90
57390;DHT22;43217;52.694;6.214;2023-08-31T02:11:32;11.70;99.90
57390;DHT22;43217;52.694;6.214;2023-08-31T02:14:03;11.70;99.90
57390;DHT22;43217;52.694;6.214;2023-08-31T02:16:30;11.60;99.90
57390;DHT22;43217;52.694;6.214;2023-08-31T02:18:57;11.70;99.90
57390;DHT22;43217;52.694;6.214;2023-08-31T02:21:22;11.60;99.90
57390;DHT22;43217;52.694;6.214;2023-08-31T02:23:48;11.60;99.90
57390;DHT22;43217;52.694;6.214;2023-08-31T02:26:14;11.50;99.90
57390;DHT22;43217;52.694;6.214;2023-08-31T02:28:39;11.50;99.90
57390;DHT22;43217;52.694;6.214;2023-08-31T02:31:05;11.50;99.90
57390;DHT22;43217;52.694;6.214;2023-08-31T02:33:31;11.50;99.90
57390;DHT22;43217;52.694;6.214;2023-08-31T02:35:57;11.50;99.90
57390;DHT22;43217;52.694;6.214;2023-08-31T02:38:23;11.40;99.90
57390;DHT22;43217;52.694;6.214;2023-08-31T02:40:49;11.40;99.90
57390;DHT22;43217;52.694;6.214;2023-08-31T02:43:15;11.40;99.90
57390;DHT22;43217;52.694;6.214;2023-08-31T02:45:40;11.40;99.90
57390;DHT22;43217;52.694;6.214;2023-08-31T02:48:07;11.40;99.90
57390;DHT22;43217;52.694;6.214;2023-08-31T02:50:34;11.40;99.90
57390;DHT22;43217;52.694;6.214;2023-08-31T02:53:00;11.40;99.90
57390;DHT22;43217;52.694;6.214;2023-08-31T02:55:26;11.40;99.90
57390;DHT22;43217;52.694;6.214;2023-08-31T02:57:52;11.50;99.90
57390;DHT22;43217;52.694;6.214;2023-08-31T03:00:18;11.40;99.90
57390;DHT22;43217;52.694;6.214;2023-08-31T03:02:49;11.50;99.90
57390;DHT22;43217;52.694;6.214;2023-08-31T03:05:18;11.50;99.90
57390;DHT22;43217;52.694;6.214;2023-08-31T03:07:50;11.50;99.90
57390;DHT22;43217;52.694;6.214;2023-08-31T03:10:15;11.50;99.90
57390;DHT22;43217;52.694;6.214;2023-08-31T03:12:41;11.50;99.90
57390;DHT22;43217;52.694;6.214;2023-08-31T03:15:07;11.50;99.90
57390;DHT22;43217;52.694;6.214;2023-08-31T03:17:33;11.50;99.90
57390;DHT22;43217;52.694;6.214;2023-08-31T03:19:59;11.50;99.90
57390;DHT22;43217;52.694;6.214;2023-08-31T03:22:25;11.50;99.90
57390;DHT22;43217;52.694;6.214;2023-08-31T03:24:50;11.50;99.90
57390;DHT22;43217;52.694;6.214;2023-08-31T03:27:16;11.50;99.90
57390;DHT22;43217;52.694;6.214;2023-08-31T03:29:42;11.50;99.90
57390;DHT22;43217;52.694;6.214;2023-08-31T03:32:07;11.50;99.90
57390;DHT22;43217;52.694;6.214;2023-08-31T03:34:33;11.50;99.90
57390;DHT22;43217;52.694;6.214;2023-08-31T03:36:59;11.50;99.90
57390;DHT22;43217;52.694;6.214;2023-08-31T03:39:25;11.50;99.90
57390;DHT22;43217;52.694;6.214;2023-08-31T03:41:51;11.50;99.90
57390;DHT22;43217;52.694;6.214;2023-08-31T03:44:17;11.50;99.90
57390;DHT22;43217;52.694;6.214;2023-08-31T03:46:43;11.50;99.90
57390;DHT22;43217;52.694;6.214;2023-08-31T03:49:09;11.50;99.90
57390;DHT22;43217;52.694;6.214;2023-08-31T03:51:34;11.50;99.90
57390;DHT22;43217;52.694;6.214;2023-08-31T03:54:00;11.50;99.90
57390;DHT22;43217;52.694;6.214;2023-08-31T03:56:26;11.50;99.90
57390;DHT22;43217;52.694;6.214;2023-08-31T03:58:52;11.50;99.90
57390;DHT22;43217;52.694;6.214;2023-08-31T04:01:18;11.50;99.90
57390;DHT22;43217;52.694;6.214;2023-08-31T04:03:44;11.50;99.90
57390;DHT22;43217;52.694;6.214;2023-08-31T04:06:09;11.50;99.90
57390;DHT22;43217;52.694;6.214;2023-08-31T04:08:35;11.50;99.90
57390;DHT22;43217;52.694;6.214;2023-08-31T04:11:01;11.50;99.90
57390;DHT22;43217;52.694;6.214;2023-08-31T04:13:26;11.50;99.90
57390;DHT22;43217;52.694;6.214;2023-08-31T04:15:52;11.60;99.90
57390;DHT22;43217;52.694;6.214;2023-08-31T04:18:18;11.60;99.90
57390;DHT22;43217;52.694;6.214;2023-08-31T04:20:53;11.60;99.90
57390;DHT22;43217;52.694;6.214;2023-08-31T04:23:20;11.50;99.90
57390;DHT22;43217;52.694;6.214;2023-08-31T04:25:46;11.60;99.90
57390;DHT22;43217;52.694;6.214;2023-08-31T04:28:13;11.50;99.90
57390;DHT22;43217;52.694;6.214;2023-08-31T04:30:39;11.60;99.90
57390;DHT22;43217;52.694;6.214;2023-08-31T04:33:06;11.50;99.90
57390;DHT22;43217;52.694;6.214;2023-08-31T04:35:33;11.50;99.90
57390;DHT22;43217;52.694;6.214;2023-08-31T04:37:59;11.50;99.90
57390;DHT22;43217;52.694;6.214;2023-08-31T04:40:25;11.50;99.90
57390;DHT22;43217;52.694;6.214;2023-08-31T04:42:52;11.50;99.90
57390;DHT22;43217;52.694;6.214;2023-08-31T04:45:18;11.50;99.90
57390;DHT22;43217;52.694;6.214;2023-08-31T04:47:43;11.50;99.90
57390;DHT22;43217;52.694;6.214;2023-08-31T04:50:09;11.60;99.90
57390;DHT22;43217;52.694;6.214;2023-08-31T04:52:35;11.50;99.90
57390;DHT22;43217;52.694;6.214;2023-08-31T04:55:01;11.60;99.90
57390;DHT22;43217;52.694;6.214;2023-08-31T04:57:29;11.60;99.90
57390;DHT22;43217;52.694;6.214;2023-08-31T04:59:55;11.60;99.90
57390;DHT22;43217;52.694;6.214;2023-08-31T05:02:20;11.70;99.90
57390;DHT22;43217;52.694;6.214;2023-08-31T05:04:46;11.70;99.90
57390;DHT22;43217;52.694;6.214;2023-08-31T05:07:12;11.70;99.90
57390;DHT22;43217;52.694;6.214;2023-08-31T05:09:37;11.70;99.90
57390;DHT22;43217;52.694;6.214;2023-08-31T05:12:03;11.70;99.90
57390;DHT22;43217;52.694;6.214;2023-08-31T05:14:29;11.80;99.90
57390;DHT22;43217;52.694;6.214;2023-08-31T05:16:55;11.80;99.90
57390;DHT22;43217;52.694;6.214;2023-08-31T05:19:21;11.80;99.90
57390;DHT22;43217;52.694;6.214;2023-08-31T05:21:47;11.90;99.90
57390;DHT22;43217;52.694;6.214;2023-08-31T05:24:13;11.90;99.90
57390;DHT22;43217;52.694;6.214;2023-08-31T05:26:39;12.00;99.90
57390;DHT22;43217;52.694;6.214;2023-08-31T05:29:05;12.00;99.90
57390;DHT22;43217;52.694;6.214;2023-08-31T05:31:31;12.10;99.90
57390;DHT22;43217;52.694;6.214;2023-08-31T05:33:57;12.10;99.90
57390;DHT22;43217;52.694;6.214;2023-08-31T05:36:23;12.20;99.90
57390;DHT22;43217;52.694;6.214;2023-08-31T05:38:51;12.20;99.90
57390;DHT22;43217;52.694;6.214;2023-08-31T05:41:17;12.20;99.90
57390;DHT22;43217;52.694;6.214;2023-08-31T05:43:43;12.30;99.90
57390;DHT22;43217;52.694;6.214;2023-08-31T05:46:09;12.40;99.90
57390;DHT22;43217;52.694;6.214;2023-08-31T05:48:35;12.40;99.90
57390;DHT22;43217;52.694;6.214;2023-08-31T05:51:02;12.60;99.90
57390;DHT22;43217;52.694;6.214;2023-08-31T05:53:32;13.00;99.90
57390;DHT22;43217;52.694;6.214;2023-08-31T05:55:59;13.20;99.90
57390;DHT22;43217;52.694;6.214;2023-08-31T05:58:33;13.60;99.90
57390;DHT22;43217;52.694;6.214;2023-08-31T06:01:00;14.00;99.90
57390;DHT22;43217;52.694;6.214;2023-08-31T06:03:26;14.30;99.90
57390;DHT22;43217;52.694;6.214;2023-08-31T06:05:53;14.50;99.90
57390;DHT22;43217;52.694;6.214;2023-08-31T06:08:18;14.80;99.90
57390;DHT22;43217;52.694;6.214;2023-08-31T06:10:44;15.30;99.90
57390;DHT22;43217;52.694;6.214;2023-08-31T06:13:10;15.40;99.90
57390;DHT22;43217;52.694;6.214;2023-08-31T06:15:35;15.60;99.90
57390;DHT22;43217;52.694;6.214;2023-08-31T06:18:01;15.60;99.90
57390;DHT22;43217;52.694;6.214;2023-08-31T06:20:27;15.40;99.90
57390;DHT22;43217;52.694;6.214;2023-08-31T06:22:52;15.30;99.90
57390;DHT22;43217;52.694;6.214;2023-08-31T06:25:18;15.50;99.90
57390;DHT22;43217;52.694;6.214;2023-08-31T06:27:44;15.60;99.90
57390;DHT22;43217;52.694;6.214;2023-08-31T06:30:10;15.60;99.90
57390;DHT22;43217;52.694;6.214;2023-08-31T06:32:45;15.80;99.90
57390;DHT22;43217;52.694;6.214;2023-08-31T06:35:12;16.50;99.90
57390;DHT22;43217;52.694;6.214;2023-08-31T06:37:39;17.30;99.90
57390;DHT22;43217;52.694;6.214;2023-08-31T06:40:06;18.00;99.90
57390;DHT22;43217;52.694;6.214;2023-08-31T06:42:34;18.40;99.90
57390;DHT22;43217;52.694;6.214;2023-08-31T06:45:00;18.00;99.90
57390;DHT22;43217;52.694;6.214;2023-08-31T06:47:27;17.40;99.90
57390;DHT22;43217;52.694;6.214;2023-08-31T06:49:52;17.00;99.90
57390;DHT22;43217;52.694;6.214;2023-08-31T06:52:18;16.70;99.90
57390;DHT22;43217;52.694;6.214;2023-08-31T06:54:44;17.20;99.90
57390;DHT22;43217;52.694;6.214;2023-08-31T06:57:10;17.30;99.90
57390;DHT22;43217;52.694;6.214;2023-08-31T06:59:35;17.80;99.90
57390;DHT22;43217;52.694;6.214;2023-08-31T07:02:01;18.60;99.90
57390;DHT22;43217;52.694;6.214;2023-08-31T07:04:27;19.10;99.90
57390;DHT22;43217;52.694;6.214;2023-08-31T07:06:53;19.40;99.90
57390;DHT22;43217;52.694;6.214;2023-08-31T07:09:18;19.20;99.90
57390;DHT22;43217;52.694;6.214;2023-08-31T07:11:44;19.40;99.90
57390;DHT22;43217;52.694;6.214;2023-08-31T07:14:09;20.00;99.90
57390;DHT22;43217;52.694;6.214;2023-08-31T07:16:35;20.20;99.90
57390;DHT22;43217;52.694;6.214;2023-08-31T07:19:02;20.20;99.90
57390;DHT22;43217;52.694;6.214;2023-08-31T07:21:28;20.70;99.90
57390;DHT22;43217;52.694;6.214;2023-08-31T07:23:54;21.30;99.90
57390;DHT22;43217;52.694;6.214;2023-08-31T07:26:20;21.80;99.90
57390;DHT22;43217;52.694;6.214;2023-08-31T07:28:46;22.30;99.90
57390;DHT22;43217;52.694;6.214;2023-08-31T07:31:12;22.60;99.90
57390;DHT22;43217;52.694;6.214;2023-08-31T07:33:38;22.70;99.90
57390;DHT22;43217;52.694;6.214;2023-08-31T07:36:05;23.00;99.90
57390;DHT22;43217;52.694;6.214;2023-08-31T07:38:32;23.30;99.90
57390;DHT22;43217;52.694;6.214;2023-08-31T07:40:58;23.60;99.90
57390;DHT22;43217;52.694;6.214;2023-08-31T07:43:24;24.00;99.90
57390;DHT22;43217;52.694;6.214;2023-08-31T07:45:50;24.20;99.90
57390;DHT22;43217;52.694;6.214;2023-08-31T07:48:16;24.30;99.90
57390;DHT22;43217;52.694;6.214;2023-08-31T07:50:42;23.50;99.90
57390;DHT22;43217;52.694;6.214;2023-08-31T07:53:07;22.60;99.90
57390;DHT22;43217;52.694;6.214;2023-08-31T07:55:33;21.50;99.90
57390;DHT22;43217;52.694;6.214;2023-08-31T07:58:00;20.90;99.90
57390;DHT22;43217;52.694;6.214;2023-08-31T08:00:26;20.50;99.90
57390;DHT22;43217;52.694;6.214;2023-08-31T08:02:52;20.60;99.90
57390;DHT22;43217;52.694;6.214;2023-08-31T08:05:17;20.70;99.90
57390;DHT22;43217;52.694;6.214;2023-08-31T08:07:43;20.30;99.90
57390;DHT22;43217;52.694;6.214;2023-08-31T08:10:11;19.80;99.90
57390;DHT22;43217;52.694;6.214;2023-08-31T08:12:41;19.60;99.90
57390;DHT22;43217;52.694;6.214;2023-08-31T08:15:09;20.20;99.90
57390;DHT22;43217;52.694;6.214;2023-08-31T08:17:35;21.20;99.90
57390;DHT22;43217;52.694;6.214;2023-08-31T08:20:00;22.20;99.90
57390;DHT22;43217;52.694;6.214;2023-08-31T08:22:26;22.40;99.90
57390;DHT22;43217;52.694;6.214;2023-08-31T08:24:54;22.40;99.90
57390;DHT22;43217;52.694;6.214;2023-08-31T08:27:20;22.10;99.90
57390;DHT22;43217;52.694;6.214;2023-08-31T08:29:46;21.90;99.90
57390;DHT22;43217;52.694;6.214;2023-08-31T08:32:13;21.40;99.90
57390;DHT22;43217;52.694;6.214;2023-08-31T08:34:39;21.50;99.90
57390;DHT22;43217;52.694;6.214;2023-08-31T08:37:04;21.10;99.90
57390;DHT22;43217;52.694;6.214;2023-08-31T08:39:30;20.60;99.90
57390;DHT22;43217;52.694;6.214;2023-08-31T08:41:58;20.10;99.90
57390;DHT22;43217;52.694;6.214;2023-08-31T08:44:32;19.90;99.90
57390;DHT22;43217;52.694;6.214;2023-08-31T08:46:59;20.40;99.90
57390;DHT22;43217;52.694;6.214;2023-08-31T08:49:26;21.30;99.90
57390;DHT22;43217;52.694;6.214;2023-08-31T08:51:52;21.70;99.90
57390;DHT22;43217;52.694;6.214;2023-08-31T08:54:19;21.50;99.90
57390;DHT22;43217;52.694;6.214;2023-08-31T08:56:45;21.50;99.90
57390;DHT22;43217;52.694;6.214;2023-08-31T08:59:11;21.60;99.90
57390;DHT22;43217;52.694;6.214;2023-08-31T09:01:39;21.40;99.90
57390;DHT22;43217;52.694;6.214;2023-08-31T09:04:05;21.40;99.90
57390;DHT22;43217;52.694;6.214;2023-08-31T09:06:32;21.30;99.90
57390;DHT22;43217;52.694;6.214;2023-08-31T09:08:57;21.20;99.90
57390;DHT22;43217;52.694;6.214;2023-08-31T09:11:24;21.60;99.90
57390;DHT22;43217;52.694;6.214;2023-08-31T09:13:50;21.70;99.90
57390;DHT22;43217;52.694;6.214;2023-08-31T09:16:27;21.80;99.90
57390;DHT22;43217;52.694;6.214;2023-08-31T09:18:55;21.80;99.90
57390;DHT22;43217;52.694;6.214;2023-08-31T09:21:21;21.30;99.90
57390;DHT22;43217;52.694;6.214;2023-08-31T09:24:06;20.70;99.90
57390;DHT22;43217;52.694;6.214;2023-08-31T09:26:39;20.30;99.90
57390;DHT22;43217;52.694;6.214;2023-08-31T09:29:08;20.00;99.90
57390;DHT22;43217;52.694;6.214;2023-08-31T09:31:34;20.10;99.90
57390;DHT22;43217;52.694;6.214;2023-08-31T09:33:59;20.20;99.90
57390;DHT22;43217;52.694;6.214;2023-08-31T09:36:26;20.20;99.90
57390;DHT22;43217;52.694;6.214;2023-08-31T09:38:57;20.00;99.90
57390;DHT22;43217;52.694;6.214;2023-08-31T09:41:24;19.90;99.90
57390;DHT22;43217;52.694;6.214;2023-08-31T09:43:49;19.90;99.90
57390;DHT22;43217;52.694;6.214;2023-08-31T09:46:16;20.00;99.90
57390;DHT22;43217;52.694;6.214;2023-08-31T09:48:42;20.10;99.90
57390;DHT22;43217;52.694;6.214;2023-08-31T09:51:10;19.90;99.90
57390;DHT22;43217;52.694;6.214;2023-08-31T09:53:37;19.60;99.90
57390;DHT22;43217;52.694;6.214;2023-08-31T09:56:05;19.40;99.90
57390;DHT22;43217;52.694;6.214;2023-08-31T09:58:33;19.10;99.90
57390;DHT22;43217;52.694;6.214;2023-08-31T10:00:59;18.90;99.90
57390;DHT22;43217;52.694;6.214;2023-08-31T10:03:26;18.70;99.90
57390;DHT22;43217;52.694;6.214;2023-08-31T10:05:54;18.40;99.90
57390;DHT22;43217;52.694;6.214;2023-08-31T10:08:20;18.20;99.90
57390;DHT22;43217;52.694;6.214;2023-08-31T10:10:46;18.00;99.90
57390;DHT22;43217;52.694;6.214;2023-08-31T10:13:13;17.90;99.90
57390;DHT22;43217;52.694;6.214;2023-08-31T10:15:41;17.90;99.90
57390;DHT22;43217;52.694;6.214;2023-08-31T10:18:08;18.10;99.90
57390;DHT22;43217;52.694;6.214;2023-08-31T10:20:34;18.20;99.90
57390;DHT22;43217;52.694;6.214;2023-08-31T10:23:05;18.40;99.90
57390;DHT22;43217;52.694;6.214;2023-08-31T10:28:25;18.90;99.90
57390;DHT22;43217;52.694;6.214;2023-08-31T10:33:34;18.90;99.90
57390;DHT22;43217;52.694;6.214;2023-08-31T10:36:00;19.10;99.90
57390;DHT22;43217;52.694;6.214;2023-08-31T10:38:28;19.30;99.90
57390;DHT22;43217;52.694;6.214;2023-08-31T10:43:56;19.50;99.90
57390;DHT22;43217;52.694;6.214;2023-08-31T10:51:34;19.80;99.90
57390;DHT22;43217;52.694;6.214;2023-08-31T10:54:08;19.90;99.90
57390;DHT22;43217;52.694;6.214;2023-08-31T10:59:24;20.30;99.90
57390;DHT22;43217;52.694;6.214;2023-08-31T11:01:59;20.30;99.90
57390;DHT22;43217;52.694;6.214;2023-08-31T11:04:27;20.20;99.90
57390;DHT22;43217;52.694;6.214;2023-08-31T11:07:19;20.00;99.90
57390;DHT22;43217;52.694;6.214;2023-08-31T11:09:46;19.70;99.90
57390;DHT22;43217;52.694;6.214;2023-08-31T11:12:12;19.40;99.90
57390;DHT22;43217;52.694;6.214;2023-08-31T11:14:39;18.80;99.90
57390;DHT22;43217;52.694;6.214;2023-08-31T11:17:05;17.90;99.90
57390;DHT22;43217;52.694;6.214;2023-08-31T11:19:35;16.60;99.90
57390;DHT22;43217;52.694;6.214;2023-08-31T11:22:02;16.20;99.90
57390;DHT22;43217;52.694;6.214;2023-08-31T11:24:32;15.90;99.90
57390;DHT22;43217;52.694;6.214;2023-08-31T11:27:01;15.70;99.90
57390;DHT22;43217;52.694;6.214;2023-08-31T11:29:29;15.70;99.90
57390;DHT22;43217;52.694;6.214;2023-08-31T11:31:56;15.80;99.90
57390;DHT22;43217;52.694;6.214;2023-08-31T11:34:25;16.00;99.90
57390;DHT22;43217;52.694;6.214;2023-08-31T11:36:51;16.30;99.90
57390;DHT22;43217;52.694;6.214;2023-08-31T11:39:18;16.50;99.90
57390;DHT22;43217;52.694;6.214;2023-08-31T11:41:43;16.70;99.90
57390;DHT22;43217;52.694;6.214;2023-08-31T11:44:11;17.00;99.90
57390;DHT22;43217;52.694;6.214;2023-08-31T11:46:39;17.20;99.90
57390;DHT22;43217;52.694;6.214;2023-08-31T11:49:06;17.40;99.90
57390;DHT22;43217;52.694;6.214;2023-08-31T11:51:38;17.60;99.90
57390;DHT22;43217;52.694;6.214;2023-08-31T11:54:05;17.90;99.90
57390;DHT22;43217;52.694;6.214;2023-08-31T11:56:44;18.10;99.90
57390;DHT22;43217;52.694;6.214;2023-08-31T11:59:12;18.40;99.90
57390;DHT22;43217;52.694;6.214;2023-08-31T12:01:41;18.60;99.90
57390;DHT22;43217;52.694;6.214;2023-08-31T12:04:14;18.80;99.90
57390;DHT22;43217;52.694;6.214;2023-08-31T12:06:40;18.80;99.90
57390;DHT22;43217;52.694;6.214;2023-08-31T12:09:09;18.70;99.90
57390;DHT22;43217;52.694;6.214;2023-08-31T12:11:36;18.20;99.90
57390;DHT22;43217;52.694;6.214;2023-08-31T12:14:03;17.70;99.90
57390;DHT22;43217;52.694;6.214;2023-08-31T12:16:35;17.00;99.90
57390;DHT22;43217;52.694;6.214;2023-08-31T12:19:03;16.50;99.90
57390;DHT22;43217;52.694;6.214;2023-08-31T12:21:30;16.40;99.90
57390;DHT22;43217;52.694;6.214;2023-08-31T12:23:57;16.30;99.90
57390;DHT22;43217;52.694;6.214;2023-08-31T12:26:24;16.30;99.90
57390;DHT22;43217;52.694;6.214;2023-08-31T12:28:49;16.30;99.90
57390;DHT22;43217;52.694;6.214;2023-08-31T12:31:15;16.30;99.90
57390;DHT22;43217;52.694;6.214;2023-08-31T12:33:41;16.40;99.90
57390;DHT22;43217;52.694;6.214;2023-08-31T12:36:07;16.50;99.90
57390;DHT22;43217;52.694;6.214;2023-08-31T12:38:32;16.70;99.90
57390;DHT22;43217;52.694;6.214;2023-08-31T12:40:59;16.90;99.90
57390;DHT22;43217;52.694;6.214;2023-08-31T12:43:25;17.10;99.90
57390;DHT22;43217;52.694;6.214;2023-08-31T12:45:50;17.20;99.90
57390;DHT22;43217;52.694;6.214;2023-08-31T12:48:16;17.40;99.90
57390;DHT22;43217;52.694;6.214;2023-08-31T12:50:42;17.50;99.90
57390;DHT22;43217;52.694;6.214;2023-08-31T12:53:08;17.60;99.90
57390;DHT22;43217;52.694;6.214;2023-08-31T12:55:33;17.70;99.90
57390;DHT22;43217;52.694;6.214;2023-08-31T12:57:59;17.80;99.90
57390;DHT22;43217;52.694;6.214;2023-08-31T13:00:25;17.90;99.90
57390;DHT22;43217;52.694;6.214;2023-08-31T13:02:51;17.90;99.90
57390;DHT22;43217;52.694;6.214;2023-08-31T13:05:17;18.00;99.90
57390;DHT22;43217;52.694;6.214;2023-08-31T13:07:42;18.00;99.90
57390;DHT22;43217;52.694;6.214;2023-08-31T13:10:08;18.00;99.90
57390;DHT22;43217;52.694;6.214;2023-08-31T13:12:34;18.10;99.90
57390;DHT22;43217;52.694;6.214;2023-08-31T13:15:00;18.10;99.90
57390;DHT22;43217;52.694;6.214;2023-08-31T13:17:27;18.20;99.90
57390;DHT22;43217;52.694;6.214;2023-08-31T13:19:57;18.30;99.90
57390;DHT22;43217;52.694;6.214;2023-08-31T13:22:23;18.40;99.90
57390;DHT22;43217;52.694;6.214;2023-08-31T13:24:49;18.60;99.90
57390;DHT22;43217;52.694;6.214;2023-08-31T13:27:15;18.80;99.90
57390;DHT22;43217;52.694;6.214;2023-08-31T13:29:41;18.90;99.90
57390;DHT22;43217;52.694;6.214;2023-08-31T13:32:07;19.00;99.90
57390;DHT22;43217;52.694;6.214;2023-08-31T13:34:33;18.90;99.90
57390;DHT22;43217;52.694;6.214;2023-08-31T13:36:59;18.80;99.90
57390;DHT22;43217;52.694;6.214;2023-08-31T13:39:29;18.80;99.90
57390;DHT22;43217;52.694;6.214;2023-08-31T13:41:55;18.70;99.90
57390;DHT22;43217;52.694;6.214;2023-08-31T13:44:21;18.60;99.90
57390;DHT22;43217;52.694;6.214;2023-08-31T13:46:50;18.70;99.90
57390;DHT22;43217;52.694;6.214;2023-08-31T13:49:15;18.70;99.90
57390;DHT22;43217;52.694;6.214;2023-08-31T13:51:41;18.70;99.90
57390;DHT22;43217;52.694;6.214;2023-08-31T13:54:07;18.60;99.90
57390;DHT22;43217;52.694;6.214;2023-08-31T13:56:34;18.50;99.90
57390;DHT22;43217;52.694;6.214;2023-08-31T13:58:59;18.40;99.90
57390;DHT22;43217;52.694;6.214;2023-08-31T14:01:25;18.40;99.90
57390;DHT22;43217;52.694;6.214;2023-08-31T14:03:52;18.40;99.90
57390;DHT22;43217;52.694;6.214;2023-08-31T14:06:17;18.40;99.90
57390;DHT22;43217;52.694;6.214;2023-08-31T14:08:43;18.40;99.90
57390;DHT22;43217;52.694;6.214;2023-08-31T14:11:08;18.40;99.90
57390;DHT22;43217;52.694;6.214;2023-08-31T14:13:34;18.30;99.90
57390;DHT22;43217;52.694;6.214;2023-08-31T14:16:00;18.30;99.90
57390;DHT22;43217;52.694;6.214;2023-08-31T14:18:26;18.30;99.90
57390;DHT22;43217;52.694;6.214;2023-08-31T14:20:55;18.30;99.90
57390;DHT22;43217;52.694;6.214;2023-08-31T14:23:20;18.30;99.90
57390;DHT22;43217;52.694;6.214;2023-08-31T14:25:46;18.40;99.90
57390;DHT22;43217;52.694;6.214;2023-08-31T14:28:12;18.50;99.90
57390;DHT22;43217;52.694;6.214;2023-08-31T14:30:37;18.50;99.90
57390;DHT22;43217;52.694;6.214;2023-08-31T14:33:04;18.50;99.90
57390;DHT22;43217;52.694;6.214;2023-08-31T14:35:29;18.50;99.90
57390;DHT22;43217;52.694;6.214;2023-08-31T14:37:56;18.50;99.90
57390;DHT22;43217;52.694;6.214;2023-08-31T14:40:22;18.50;99.90
57390;DHT22;43217;52.694;6.214;2023-08-31T14:42:47;18.50;99.90
57390;DHT22;43217;52.694;6.214;2023-08-31T14:45:13;18.50;99.90
57390;DHT22;43217;52.694;6.214;2023-08-31T14:47:38;18.60;99.90
57390;DHT22;43217;52.694;6.214;2023-08-31T14:50:04;18.70;99.90
57390;DHT22;43217;52.694;6.214;2023-08-31T14:52:30;18.80;99.90
57390;DHT22;43217;52.694;6.214;2023-08-31T14:54:56;18.90;99.90
57390;DHT22;43217;52.694;6.214;2023-08-31T14:57:22;18.90;99.90
57390;DHT22;43217;52.694;6.214;2023-08-31T14:59:47;18.80;99.90
57390;DHT22;43217;52.694;6.214;2023-08-31T15:02:13;18.70;99.90
57390;DHT22;43217;52.694;6.214;2023-08-31T15:04:41;18.70;99.90
57390;DHT22;43217;52.694;6.214;2023-08-31T15:07:06;18.70;99.90
57390;DHT22;43217;52.694;6.214;2023-08-31T15:09:32;18.60;99.90
57390;DHT22;43217;52.694;6.214;2023-08-31T15:11:58;18.60;99.90
57390;DHT22;43217;52.694;6.214;2023-08-31T15:14:24;18.60;99.90
57390;DHT22;43217;52.694;6.214;2023-08-31T15:16:49;18.50;99.90
57390;DHT22;43217;52.694;6.214;2023-08-31T15:19:15;18.50;99.90
57390;DHT22;43217;52.694;6.214;2023-08-31T15:21:40;18.50;99.90
57390;DHT22;43217;52.694;6.214;2023-08-31T15:24:06;18.50;99.90
57390;DHT22;43217;52.694;6.214;2023-08-31T15:26:32;18.60;99.90
57390;DHT22;43217;52.694;6.214;2023-08-31T15:28:58;18.60;99.90
57390;DHT22;43217;52.694;6.214;2023-08-31T15:31:24;18.60;99.90
57390;DHT22;43217;52.694;6.214;2023-08-31T15:33:50;18.50;99.90
57390;DHT22;43217;52.694;6.214;2023-08-31T15:36:16;18.40;99.90
57390;DHT22;43217;52.694;6.214;2023-08-31T15:38:42;18.40;99.90
57390;DHT22;43217;52.694;6.214;2023-08-31T15:41:08;18.40;99.90
57390;DHT22;43217;52.694;6.214;2023-08-31T15:43:35;18.30;99.90
57390;DHT22;43217;52.694;6.214;2023-08-31T15:46:03;18.30;99.90
57390;DHT22;43217;52.694;6.214;2023-08-31T15:48:29;18.20;99.90